PACV Airport Information

Runway Information
Runway 09 Length 7500 ft width 150 ft
Elevation 36 ft Threshold 0 ft Heading 114
Runway 27 Length 7500 ft Width 150 ft
Elevation 37 ft Threshold 0 ft Heading 294
Runway 16 Length 1899 ft width 30 ft
Elevation 46 ft Threshold 0 ft Heading 181
Runway 34 Length 1899 ft Width 30 ft
Elevation 35 ft Threshold 0 ft Heading 1
Airport Frequencies
Type A/D Name ANCHORAGE Frequency 133.6 MHZ
Type ASOS Name ASOS Frequency 134.8 MHZ
Type CTAF Name CTAF Frequency 123.6 MHZ
Type FSS Name JUNEAU RDO Frequency 122.2 MHZ
Airport Navaids
Type NDB Name Glacier River Frequency 404 KHZ
Airport Weather Information & NOTAM
ADDS - METARS form results

(1317 UTC 08 July 2020)
Data provider http://aviationweather.gov/metar/data/
 
METAR text: PACV 081301Z 00000KT 10SM OVC014 12/10 A2996 RMK AO2 T01170100
Conditions at: PACV (CORDOVA , AK, US) observed 1301 UTC 08 July 2020
Temperature: 11.7°C (53°F)
Dewpoint: 10.0°C (50°F) [RH = 89%]
Pressure (altimeter): 29.96 inches Hg (1014.6 mb)
Winds: calm
Visibility: 10 or more miles (16+ km)
Ceiling: 1400 feet AGL
Clouds: overcast cloud deck at 1400 feet AGL
Weather: no significant weather observed at this time

METAR text: PACV 081253Z 06003KT 10SM FEW009 OVC015 12/10 A2997 RMK AO2 SLP147 T01170100
Conditions at: PACV (CORDOVA , AK, US) observed 1253 UTC 08 July 2020
Temperature: 11.7°C (53°F)
Dewpoint: 10.0°C (50°F) [RH = 89%]
Pressure (altimeter): 29.97 inches Hg (1015.0 mb)
[Sea-level pressure: 1014.7 mb]
Winds: from the ENE (60 degrees) at 3 MPH (3 knots; 1.5 m/s)
Visibility: 10 or more miles (16+ km)
Ceiling: 1500 feet AGL
Clouds: few clouds at 900 feet AGL
overcast cloud deck at 1500 feet AGL
Weather: no significant weather observed at this time

METAR text: PACV 081251Z 00000KT 10SM FEW010 OVC015 12/10 A2997 RMK AO2
Conditions at: PACV (CORDOVA , AK, US) observed 1251 UTC 08 July 2020
Temperature: 12.0°C (54°F)
Dewpoint: 10.0°C (50°F) [RH = 88%]
Pressure (altimeter): 29.97 inches Hg (1015.0 mb)
Winds: calm
Visibility: 10 or more miles (16+ km)
Ceiling: 1500 feet AGL
Clouds: few clouds at 1000 feet AGL
overcast cloud deck at 1500 feet AGL
Weather: no significant weather observed at this time

METAR text: PACV 081221Z 07003KT 10SM OVC012 12/10 A2997 RMK AO2 T01170100
Conditions at: PACV (CORDOVA , AK, US) observed 1221 UTC 08 July 2020
Temperature: 11.7°C (53°F)
Dewpoint: 10.0°C (50°F) [RH = 89%]
Pressure (altimeter): 29.97 inches Hg (1015.0 mb)
Winds: from the ENE (70 degrees) at 3 MPH (3 knots; 1.5 m/s)
Visibility: 10 or more miles (16+ km)
Ceiling: 1200 feet AGL
Clouds: overcast cloud deck at 1200 feet AGL
Weather: no significant weather observed at this time

Forecast for: PACV (CORDOVA , AK, US)
Text: PACV 081144Z 0812/0912 00000KT P6SM SCT009 OVC020
Forecast period: 1200 to 1800 UTC 08 July 2020
Forecast type: FROM: standard forecast or significant change
Winds: calm
Visibility: 6 or more miles 10+ km)
Ceiling: 2000 feet AGL
Clouds: scattered clouds at 900 feet AGL
overcast cloud deck at 2000 feet AGL
Weather: no significant weather forecast for this period
Text: FM081800 11006KT P6SM -RA OVC015
Forecast period: 1800 to 2000 UTC 08 July 2020
Forecast type: FROM: standard forecast or significant change
Winds: from the ESE (110 degrees) at 7 MPH (6 knots; 3.1 m/s)
Visibility: 6 or more miles 10+ km)
Ceiling: 1500 feet AGL
Clouds: overcast cloud deck at 1500 feet AGL
Weather: -RA  (light rain)
Text: FM082000 11006KT 6SM -RA BR OVC012
Forecast period: 2000 UTC 08 July 2020 to 0600 UTC 09 July 2020
Forecast type: FROM: standard forecast or significant change
Winds: from the ESE (110 degrees) at 7 MPH (6 knots; 3.1 m/s)
Visibility: 6 miles (10 km)
Ceiling: 1200 feet AGL
Clouds: overcast cloud deck at 1200 feet AGL
Weather: -RA BR  (light rain, mist)
Text: FM090600 VRB03KT P6SM SCT025
Forecast period: 0600 to 1200 UTC 09 July 2020
Forecast type: FROM: standard forecast or significant change
Winds: variable direction winds at 3 MPH (3 knots; 1.5 m/s)
Visibility: 6 or more miles 10+ km)
Ceiling: at least 12,000 feet AGL
Clouds: scattered clouds at 2500 feet AGL
Weather: no significant weather forecast for this period